Otter Lake, Michigan
Current Conditions -  °F | °C
As of 9:14 PM on Saturday 25 Oct 2014 (Local Time) from KD95 Reporting Station
Clear Clear  
Wind Chill: 55°   Ceiling: Unl
Heat Index: 55°   Visibility: 10mi
Dew Point: 31°   Wind: 7mph
Humidity: 40%   Direction: 290°WNW
Pressure: 29.78"   Gusts: NA
Location:  43.21°N, 83.45°W
Report Text: KD95 260114Z AUTO 29006KT 10SM CLR 13/M01 A2978 RMK AO2 T01271008
Loading
Personal Weather Stations






























Interactive Weather Map
Tropical Storm Tracking
New forecast layout! Learn more

10-Day Weather Forecast

Advertisements
Track Severe Weather on mobile